sensor_id;sensor_type;location;lat;lon;timestamp;temperature;humidity
47961;DHT22;33721;48.852;9.936;2023-06-14T00:01:37;12.10;99.90
47961;DHT22;33721;48.852;9.936;2023-06-14T00:04:03;12.10;99.90
47961;DHT22;33721;48.852;9.936;2023-06-14T00:06:30;12.00;99.90
47961;DHT22;33721;48.852;9.936;2023-06-14T00:08:56;12.00;99.90
47961;DHT22;33721;48.852;9.936;2023-06-14T00:11:21;12.10;99.90
47961;DHT22;33721;48.852;9.936;2023-06-14T00:13:47;12.10;99.90
47961;DHT22;33721;48.852;9.936;2023-06-14T00:16:13;12.20;99.90
47961;DHT22;33721;48.852;9.936;2023-06-14T00:18:38;12.20;99.90
47961;DHT22;33721;48.852;9.936;2023-06-14T00:21:05;12.10;99.90
47961;DHT22;33721;48.852;9.936;2023-06-14T00:23:30;12.10;99.90
47961;DHT22;33721;48.852;9.936;2023-06-14T00:25:56;12.00;99.90
47961;DHT22;33721;48.852;9.936;2023-06-14T00:28:22;12.00;99.90
47961;DHT22;33721;48.852;9.936;2023-06-14T00:30:47;11.80;99.90
47961;DHT22;33721;48.852;9.936;2023-06-14T00:33:13;11.80;99.90
47961;DHT22;33721;48.852;9.936;2023-06-14T00:35:39;11.80;99.90
47961;DHT22;33721;48.852;9.936;2023-06-14T00:38:05;11.90;99.90
47961;DHT22;33721;48.852;9.936;2023-06-14T00:40:30;12.00;99.90
47961;DHT22;33721;48.852;9.936;2023-06-14T00:42:56;12.00;99.90
47961;DHT22;33721;48.852;9.936;2023-06-14T00:45:22;12.00;99.90
47961;DHT22;33721;48.852;9.936;2023-06-14T00:47:48;11.90;99.90
47961;DHT22;33721;48.852;9.936;2023-06-14T00:50:19;11.70;99.90
47961;DHT22;33721;48.852;9.936;2023-06-14T00:52:45;11.70;99.90
47961;DHT22;33721;48.852;9.936;2023-06-14T00:55:11;11.80;99.90
47961;DHT22;33721;48.852;9.936;2023-06-14T00:57:37;11.80;99.90
47961;DHT22;33721;48.852;9.936;2023-06-14T01:00:04;11.70;99.90
47961;DHT22;33721;48.852;9.936;2023-06-14T01:02:35;11.60;99.90
47961;DHT22;33721;48.852;9.936;2023-06-14T01:05:02;11.50;99.90
47961;DHT22;33721;48.852;9.936;2023-06-14T01:10:25;11.70;99.90
47961;DHT22;33721;48.852;9.936;2023-06-14T01:13:08;11.70;99.90
47961;DHT22;33721;48.852;9.936;2023-06-14T01:15:36;11.50;99.90
47961;DHT22;33721;48.852;9.936;2023-06-14T01:18:05;11.40;99.90
47961;DHT22;33721;48.852;9.936;2023-06-14T01:20:34;11.40;99.90
47961;DHT22;33721;48.852;9.936;2023-06-14T01:23:03;11.40;99.90
47961;DHT22;33721;48.852;9.936;2023-06-14T01:25:28;11.50;99.90
47961;DHT22;33721;48.852;9.936;2023-06-14T01:27:58;11.30;99.90
47961;DHT22;33721;48.852;9.936;2023-06-14T01:30:25;11.20;99.90
47961;DHT22;33721;48.852;9.936;2023-06-14T01:32:53;11.10;99.90
47961;DHT22;33721;48.852;9.936;2023-06-14T01:35:20;11.10;99.90
47961;DHT22;33721;48.852;9.936;2023-06-14T01:37:47;11.10;99.90
47961;DHT22;33721;48.852;9.936;2023-06-14T01:40:15;10.90;99.90
47961;DHT22;33721;48.852;9.936;2023-06-14T01:42:41;10.70;99.90
47961;DHT22;33721;48.852;9.936;2023-06-14T01:45:09;10.60;99.90
47961;DHT22;33721;48.852;9.936;2023-06-14T01:47:35;10.70;99.90
47961;DHT22;33721;48.852;9.936;2023-06-14T01:50:02;10.80;99.90
47961;DHT22;33721;48.852;9.936;2023-06-14T01:52:28;10.80;99.90
47961;DHT22;33721;48.852;9.936;2023-06-14T01:54:54;10.90;99.90
47961;DHT22;33721;48.852;9.936;2023-06-14T01:57:20;10.90;99.90
47961;DHT22;33721;48.852;9.936;2023-06-14T01:59:47;10.90;99.90
47961;DHT22;33721;48.852;9.936;2023-06-14T02:02:14;10.80;99.90
47961;DHT22;33721;48.852;9.936;2023-06-14T02:04:40;10.70;99.90
47961;DHT22;33721;48.852;9.936;2023-06-14T02:07:06;10.70;99.90
47961;DHT22;33721;48.852;9.936;2023-06-14T02:09:33;10.60;99.90
47961;DHT22;33721;48.852;9.936;2023-06-14T02:11:59;10.60;99.90
47961;DHT22;33721;48.852;9.936;2023-06-14T02:14:25;10.60;99.90
47961;DHT22;33721;48.852;9.936;2023-06-14T02:16:51;10.60;99.90
47961;DHT22;33721;48.852;9.936;2023-06-14T02:19:19;10.60;99.90
47961;DHT22;33721;48.852;9.936;2023-06-14T02:21:45;10.60;99.90
47961;DHT22;33721;48.852;9.936;2023-06-14T02:24:10;10.50;99.90
47961;DHT22;33721;48.852;9.936;2023-06-14T02:26:36;10.50;99.90
47961;DHT22;33721;48.852;9.936;2023-06-14T02:29:07;10.50;99.90
47961;DHT22;33721;48.852;9.936;2023-06-14T02:31:35;10.50;99.90
47961;DHT22;33721;48.852;9.936;2023-06-14T02:34:01;10.40;99.90
47961;DHT22;33721;48.852;9.936;2023-06-14T02:36:27;10.30;99.90
47961;DHT22;33721;48.852;9.936;2023-06-14T02:38:55;10.30;99.90
47961;DHT22;33721;48.852;9.936;2023-06-14T02:41:23;10.20;99.90
47961;DHT22;33721;48.852;9.936;2023-06-14T02:43:48;10.10;99.90
47961;DHT22;33721;48.852;9.936;2023-06-14T02:46:14;10.00;99.90
47961;DHT22;33721;48.852;9.936;2023-06-14T02:48:40;10.00;99.90
47961;DHT22;33721;48.852;9.936;2023-06-14T02:51:06;9.90;99.90
47961;DHT22;33721;48.852;9.936;2023-06-14T02:53:33;9.90;99.90
47961;DHT22;33721;48.852;9.936;2023-06-14T02:55:59;9.90;99.90
47961;DHT22;33721;48.852;9.936;2023-06-14T02:58:26;9.90;99.90
47961;DHT22;33721;48.852;9.936;2023-06-14T03:00:52;9.90;99.90
47961;DHT22;33721;48.852;9.936;2023-06-14T03:03:20;9.80;99.90
47961;DHT22;33721;48.852;9.936;2023-06-14T03:05:49;9.80;99.90
47961;DHT22;33721;48.852;9.936;2023-06-14T03:08:18;9.80;99.90
47961;DHT22;33721;48.852;9.936;2023-06-14T03:10:45;9.80;99.90
47961;DHT22;33721;48.852;9.936;2023-06-14T03:13:12;9.70;99.90
47961;DHT22;33721;48.852;9.936;2023-06-14T03:15:38;9.60;99.90
47961;DHT22;33721;48.852;9.936;2023-06-14T03:18:04;9.50;99.90
47961;DHT22;33721;48.852;9.936;2023-06-14T03:20:30;9.50;99.90
47961;DHT22;33721;48.852;9.936;2023-06-14T03:22:59;9.50;99.90
47961;DHT22;33721;48.852;9.936;2023-06-14T03:25:25;9.50;99.90
47961;DHT22;33721;48.852;9.936;2023-06-14T03:27:51;9.40;99.90
47961;DHT22;33721;48.852;9.936;2023-06-14T03:30:17;9.50;99.90
47961;DHT22;33721;48.852;9.936;2023-06-14T03:32:43;9.40;99.90
47961;DHT22;33721;48.852;9.936;2023-06-14T03:35:08;9.30;99.90
47961;DHT22;33721;48.852;9.936;2023-06-14T03:37:35;9.40;99.90
47961;DHT22;33721;48.852;9.936;2023-06-14T03:40:01;9.50;99.90
47961;DHT22;33721;48.852;9.936;2023-06-14T03:42:26;9.60;99.90
47961;DHT22;33721;48.852;9.936;2023-06-14T03:44:52;9.60;99.90
47961;DHT22;33721;48.852;9.936;2023-06-14T03:47:17;9.70;99.90
47961;DHT22;33721;48.852;9.936;2023-06-14T03:49:43;9.60;99.90
47961;DHT22;33721;48.852;9.936;2023-06-14T03:52:09;9.50;99.90
47961;DHT22;33721;48.852;9.936;2023-06-14T03:54:34;9.40;99.90
47961;DHT22;33721;48.852;9.936;2023-06-14T03:57:00;9.40;99.90
47961;DHT22;33721;48.852;9.936;2023-06-14T03:59:26;9.30;99.90
47961;DHT22;33721;48.852;9.936;2023-06-14T04:01:53;9.40;99.90
47961;DHT22;33721;48.852;9.936;2023-06-14T04:04:19;9.40;99.90
47961;DHT22;33721;48.852;9.936;2023-06-14T04:06:46;9.40;99.90
47961;DHT22;33721;48.852;9.936;2023-06-14T04:09:13;9.50;99.90
47961;DHT22;33721;48.852;9.936;2023-06-14T04:11:39;9.50;99.90
47961;DHT22;33721;48.852;9.936;2023-06-14T04:14:05;9.50;99.90
47961;DHT22;33721;48.852;9.936;2023-06-14T04:16:31;9.50;99.90
47961;DHT22;33721;48.852;9.936;2023-06-14T04:18:57;9.60;99.90
47961;DHT22;33721;48.852;9.936;2023-06-14T04:21:23;9.70;99.90
47961;DHT22;33721;48.852;9.936;2023-06-14T04:23:49;9.80;99.90
47961;DHT22;33721;48.852;9.936;2023-06-14T04:26:18;9.90;99.90
47961;DHT22;33721;48.852;9.936;2023-06-14T04:28:45;10.00;99.90
47961;DHT22;33721;48.852;9.936;2023-06-14T04:31:12;10.20;99.90
47961;DHT22;33721;48.852;9.936;2023-06-14T04:33:38;10.30;99.90
47961;DHT22;33721;48.852;9.936;2023-06-14T04:36:10;10.50;99.90
47961;DHT22;33721;48.852;9.936;2023-06-14T04:38:37;10.60;99.90
47961;DHT22;33721;48.852;9.936;2023-06-14T04:41:03;10.80;99.90
47961;DHT22;33721;48.852;9.936;2023-06-14T04:43:29;11.10;99.90
47961;DHT22;33721;48.852;9.936;2023-06-14T04:45:54;11.30;99.90
47961;DHT22;33721;48.852;9.936;2023-06-14T04:48:22;11.20;99.90
47961;DHT22;33721;48.852;9.936;2023-06-14T04:50:48;11.30;99.90
47961;DHT22;33721;48.852;9.936;2023-06-14T04:53:14;11.50;99.90
47961;DHT22;33721;48.852;9.936;2023-06-14T04:55:39;11.60;99.90
47961;DHT22;33721;48.852;9.936;2023-06-14T04:58:10;11.70;99.90
47961;DHT22;33721;48.852;9.936;2023-06-14T05:00:38;11.90;99.90
47961;DHT22;33721;48.852;9.936;2023-06-14T05:03:03;12.00;99.90
47961;DHT22;33721;48.852;9.936;2023-06-14T05:05:31;12.20;99.90
47961;DHT22;33721;48.852;9.936;2023-06-14T05:07:57;12.30;99.90
47961;DHT22;33721;48.852;9.936;2023-06-14T05:10:24;12.50;99.90
47961;DHT22;33721;48.852;9.936;2023-06-14T05:12:49;12.50;99.90
47961;DHT22;33721;48.852;9.936;2023-06-14T05:15:15;12.60;99.90
47961;DHT22;33721;48.852;9.936;2023-06-14T05:17:41;12.80;99.90
47961;DHT22;33721;48.852;9.936;2023-06-14T05:20:07;13.00;99.90
47961;DHT22;33721;48.852;9.936;2023-06-14T05:22:35;13.20;99.90
47961;DHT22;33721;48.852;9.936;2023-06-14T05:25:01;13.20;99.90
47961;DHT22;33721;48.852;9.936;2023-06-14T05:27:27;13.20;99.90
47961;DHT22;33721;48.852;9.936;2023-06-14T05:29:53;12.90;99.90
47961;DHT22;33721;48.852;9.936;2023-06-14T05:32:23;12.90;99.90
47961;DHT22;33721;48.852;9.936;2023-06-14T05:34:49;13.10;99.90
47961;DHT22;33721;48.852;9.936;2023-06-14T05:37:15;13.20;99.90
47961;DHT22;33721;48.852;9.936;2023-06-14T05:39:41;13.40;99.90
47961;DHT22;33721;48.852;9.936;2023-06-14T05:42:07;13.60;99.90
47961;DHT22;33721;48.852;9.936;2023-06-14T05:44:32;13.70;99.90
47961;DHT22;33721;48.852;9.936;2023-06-14T05:46:58;13.90;99.90
47961;DHT22;33721;48.852;9.936;2023-06-14T05:49:23;14.00;99.90
47961;DHT22;33721;48.852;9.936;2023-06-14T05:51:49;14.00;99.90
47961;DHT22;33721;48.852;9.936;2023-06-14T05:54:15;14.10;99.90
47961;DHT22;33721;48.852;9.936;2023-06-14T05:56:40;14.40;99.90
47961;DHT22;33721;48.852;9.936;2023-06-14T05:59:06;14.60;99.90
47961;DHT22;33721;48.852;9.936;2023-06-14T06:01:31;14.90;99.90
47961;DHT22;33721;48.852;9.936;2023-06-14T06:03:59;15.10;99.90
47961;DHT22;33721;48.852;9.936;2023-06-14T06:06:24;15.40;99.90
47961;DHT22;33721;48.852;9.936;2023-06-14T06:08:50;15.60;99.90
47961;DHT22;33721;48.852;9.936;2023-06-14T06:11:16;15.70;99.90
47961;DHT22;33721;48.852;9.936;2023-06-14T06:13:41;15.90;99.90
47961;DHT22;33721;48.852;9.936;2023-06-14T06:16:07;16.10;99.90
47961;DHT22;33721;48.852;9.936;2023-06-14T06:18:33;16.20;99.90
47961;DHT22;33721;48.852;9.936;2023-06-14T06:20:59;16.30;99.90
47961;DHT22;33721;48.852;9.936;2023-06-14T06:23:25;16.50;99.90
47961;DHT22;33721;48.852;9.936;2023-06-14T06:25:51;16.50;99.90
47961;DHT22;33721;48.852;9.936;2023-06-14T06:28:17;16.50;99.90
47961;DHT22;33721;48.852;9.936;2023-06-14T06:30:43;16.60;99.90
47961;DHT22;33721;48.852;9.936;2023-06-14T06:33:08;16.60;99.90
47961;DHT22;33721;48.852;9.936;2023-06-14T06:35:34;16.60;99.90
47961;DHT22;33721;48.852;9.936;2023-06-14T06:38:00;16.90;99.90
47961;DHT22;33721;48.852;9.936;2023-06-14T06:40:26;17.00;99.90
47961;DHT22;33721;48.852;9.936;2023-06-14T06:42:52;17.20;99.90
47961;DHT22;33721;48.852;9.936;2023-06-14T06:45:18;17.30;99.70
47961;DHT22;33721;48.852;9.936;2023-06-14T06:47:44;17.50;99.70
47961;DHT22;33721;48.852;9.936;2023-06-14T06:50:10;17.60;99.20
47961;DHT22;33721;48.852;9.936;2023-06-14T06:52:35;17.60;98.50
47961;DHT22;33721;48.852;9.936;2023-06-14T06:55:01;17.60;99.20
47961;DHT22;33721;48.852;9.936;2023-06-14T06:57:27;17.70;98.40
47961;DHT22;33721;48.852;9.936;2023-06-14T06:59:54;17.70;98.30
47961;DHT22;33721;48.852;9.936;2023-06-14T07:02:20;17.80;98.40
47961;DHT22;33721;48.852;9.936;2023-06-14T07:04:46;18.00;98.80
47961;DHT22;33721;48.852;9.936;2023-06-14T07:07:12;18.20;97.80
47961;DHT22;33721;48.852;9.936;2023-06-14T07:09:37;18.20;96.30
47961;DHT22;33721;48.852;9.936;2023-06-14T07:12:03;18.30;96.30
47961;DHT22;33721;48.852;9.936;2023-06-14T07:14:30;18.40;96.40
47961;DHT22;33721;48.852;9.936;2023-06-14T07:16:56;18.50;95.50
47961;DHT22;33721;48.852;9.936;2023-06-14T07:19:21;18.50;95.50
47961;DHT22;33721;48.852;9.936;2023-06-14T07:21:47;18.70;95.50
47961;DHT22;33721;48.852;9.936;2023-06-14T07:24:13;18.80;94.80
47961;DHT22;33721;48.852;9.936;2023-06-14T07:26:39;18.70;94.40
47961;DHT22;33721;48.852;9.936;2023-06-14T07:29:05;18.80;95.00
47961;DHT22;33721;48.852;9.936;2023-06-14T07:31:30;19.10;95.70
47961;DHT22;33721;48.852;9.936;2023-06-14T07:33:56;19.40;93.70
47961;DHT22;33721;48.852;9.936;2023-06-14T07:36:22;19.50;93.20
47961;DHT22;33721;48.852;9.936;2023-06-14T07:38:48;19.60;93.00
47961;DHT22;33721;48.852;9.936;2023-06-14T07:41:14;19.70;92.50
47961;DHT22;33721;48.852;9.936;2023-06-14T07:43:39;19.70;90.70
47961;DHT22;33721;48.852;9.936;2023-06-14T07:46:05;19.60;90.90
47961;DHT22;33721;48.852;9.936;2023-06-14T07:48:31;19.60;90.60
47961;DHT22;33721;48.852;9.936;2023-06-14T07:50:56;19.50;90.10
47961;DHT22;33721;48.852;9.936;2023-06-14T07:53:22;19.60;91.00
47961;DHT22;33721;48.852;9.936;2023-06-14T07:55:48;19.60;90.70
47961;DHT22;33721;48.852;9.936;2023-06-14T07:58:14;19.60;90.80
47961;DHT22;33721;48.852;9.936;2023-06-14T08:00:39;19.90;89.60
47961;DHT22;33721;48.852;9.936;2023-06-14T08:03:08;20.10;89.20
47961;DHT22;33721;48.852;9.936;2023-06-14T08:05:33;20.30;88.10
47961;DHT22;33721;48.852;9.936;2023-06-14T08:08:00;20.50;88.80
47961;DHT22;33721;48.852;9.936;2023-06-14T08:10:29;20.50;86.90
47961;DHT22;33721;48.852;9.936;2023-06-14T08:12:54;20.60;87.80
47961;DHT22;33721;48.852;9.936;2023-06-14T08:15:20;20.70;85.60
47961;DHT22;33721;48.852;9.936;2023-06-14T08:17:46;20.80;85.50
47961;DHT22;33721;48.852;9.936;2023-06-14T08:20:13;20.60;84.00
47961;DHT22;33721;48.852;9.936;2023-06-14T08:22:42;20.40;85.60
47961;DHT22;33721;48.852;9.936;2023-06-14T08:25:08;20.50;85.70
47961;DHT22;33721;48.852;9.936;2023-06-14T08:27:34;20.60;86.00
47961;DHT22;33721;48.852;9.936;2023-06-14T08:30:01;20.70;83.90
47961;DHT22;33721;48.852;9.936;2023-06-14T08:32:28;20.90;84.30
47961;DHT22;33721;48.852;9.936;2023-06-14T08:34:53;20.80;84.60
47961;DHT22;33721;48.852;9.936;2023-06-14T08:37:19;20.90;83.40
47961;DHT22;33721;48.852;9.936;2023-06-14T08:39:47;21.10;84.20
47961;DHT22;33721;48.852;9.936;2023-06-14T08:42:14;21.40;83.60
47961;DHT22;33721;48.852;9.936;2023-06-14T08:44:41;21.70;81.30
47961;DHT22;33721;48.852;9.936;2023-06-14T08:47:07;21.70;80.70
47961;DHT22;33721;48.852;9.936;2023-06-14T08:49:38;21.60;82.40
47961;DHT22;33721;48.852;9.936;2023-06-14T08:52:05;21.70;82.20
47961;DHT22;33721;48.852;9.936;2023-06-14T08:54:34;21.80;81.00
47961;DHT22;33721;48.852;9.936;2023-06-14T08:57:03;21.80;78.60
47961;DHT22;33721;48.852;9.936;2023-06-14T08:59:32;22.10;83.60
47961;DHT22;33721;48.852;9.936;2023-06-14T09:02:05;22.30;75.40
47961;DHT22;33721;48.852;9.936;2023-06-14T09:04:32;21.70;77.70
47961;DHT22;33721;48.852;9.936;2023-06-14T09:06:58;21.80;77.60
47961;DHT22;33721;48.852;9.936;2023-06-14T09:09:24;22.10;78.10
47961;DHT22;33721;48.852;9.936;2023-06-14T09:11:51;22.30;77.80
47961;DHT22;33721;48.852;9.936;2023-06-14T09:14:23;22.20;77.40
47961;DHT22;33721;48.852;9.936;2023-06-14T09:16:52;22.40;77.60
47961;DHT22;33721;48.852;9.936;2023-06-14T09:19:24;22.90;81.30
47961;DHT22;33721;48.852;9.936;2023-06-14T09:21:53;23.20;77.80
47961;DHT22;33721;48.852;9.936;2023-06-14T09:24:20;23.30;74.20
47961;DHT22;33721;48.852;9.936;2023-06-14T09:26:51;23.30;72.10
47961;DHT22;33721;48.852;9.936;2023-06-14T09:29:19;23.30;74.50
47961;DHT22;33721;48.852;9.936;2023-06-14T09:31:46;23.60;74.50
47961;DHT22;33721;48.852;9.936;2023-06-14T09:34:16;23.90;70.50
47961;DHT22;33721;48.852;9.936;2023-06-14T09:36:43;23.90;73.20
47961;DHT22;33721;48.852;9.936;2023-06-14T09:39:17;23.90;72.90
47961;DHT22;33721;48.852;9.936;2023-06-14T09:41:43;23.90;68.90
47961;DHT22;33721;48.852;9.936;2023-06-14T09:44:12;23.90;69.30
47961;DHT22;33721;48.852;9.936;2023-06-14T09:46:38;24.00;68.30
47961;DHT22;33721;48.852;9.936;2023-06-14T09:49:04;23.70;69.60
47961;DHT22;33721;48.852;9.936;2023-06-14T09:51:31;23.70;70.20
47961;DHT22;33721;48.852;9.936;2023-06-14T09:54:02;23.90;70.20
47961;DHT22;33721;48.852;9.936;2023-06-14T09:56:36;24.20;68.80
47961;DHT22;33721;48.852;9.936;2023-06-14T09:59:05;24.00;64.20
47961;DHT22;33721;48.852;9.936;2023-06-14T10:01:36;23.80;65.40
47961;DHT22;33721;48.852;9.936;2023-06-14T10:04:06;23.90;66.50
47961;DHT22;33721;48.852;9.936;2023-06-14T10:06:36;23.90;65.60
47961;DHT22;33721;48.852;9.936;2023-06-14T10:09:04;24.00;63.50
47961;DHT22;33721;48.852;9.936;2023-06-14T10:11:33;24.20;62.00
47961;DHT22;33721;48.852;9.936;2023-06-14T10:14:01;24.00;61.40
47961;DHT22;33721;48.852;9.936;2023-06-14T10:17:04;23.30;62.40
47961;DHT22;33721;48.852;9.936;2023-06-14T10:19:50;22.90;60.60
47961;DHT22;33721;48.852;9.936;2023-06-14T10:25:13;23.20;66.10
47961;DHT22;33721;48.852;9.936;2023-06-14T10:27:39;23.80;65.90
47961;DHT22;33721;48.852;9.936;2023-06-14T10:30:15;24.30;61.20
47961;DHT22;33721;48.852;9.936;2023-06-14T10:33:03;24.60;59.40
47961;DHT22;33721;48.852;9.936;2023-06-14T10:35:30;24.30;57.60
47961;DHT22;33721;48.852;9.936;2023-06-14T10:38:06;24.20;60.70
47961;DHT22;33721;48.852;9.936;2023-06-14T10:40:36;24.20;57.40
47961;DHT22;33721;48.852;9.936;2023-06-14T10:43:21;24.20;56.20
47961;DHT22;33721;48.852;9.936;2023-06-14T10:48:44;24.60;59.70
47961;DHT22;33721;48.852;9.936;2023-06-14T10:51:17;25.00;57.90
47961;DHT22;33721;48.852;9.936;2023-06-14T10:53:48;25.40;59.20
47961;DHT22;33721;48.852;9.936;2023-06-14T10:56:32;25.70;58.90
47961;DHT22;33721;48.852;9.936;2023-06-14T10:58:58;25.40;56.60
47961;DHT22;33721;48.852;9.936;2023-06-14T11:01:38;25.30;56.00
47961;DHT22;33721;48.852;9.936;2023-06-14T11:04:10;25.50;56.00
47961;DHT22;33721;48.852;9.936;2023-06-14T11:07:07;25.60;53.90
47961;DHT22;33721;48.852;9.936;2023-06-14T11:09:51;25.50;53.80
47961;DHT22;33721;48.852;9.936;2023-06-14T11:12:26;25.30;53.40
47961;DHT22;33721;48.852;9.936;2023-06-14T11:14:56;25.40;55.50
47961;DHT22;33721;48.852;9.936;2023-06-14T11:17:21;25.50;58.00
47961;DHT22;33721;48.852;9.936;2023-06-14T11:19:47;26.00;56.40
47961;DHT22;33721;48.852;9.936;2023-06-14T11:22:13;26.30;57.60
47961;DHT22;33721;48.852;9.936;2023-06-14T11:24:40;26.30;53.30
47961;DHT22;33721;48.852;9.936;2023-06-14T11:27:08;26.50;53.20
47961;DHT22;33721;48.852;9.936;2023-06-14T11:29:34;25.90;51.80
47961;DHT22;33721;48.852;9.936;2023-06-14T11:32:05;25.70;52.40
47961;DHT22;33721;48.852;9.936;2023-06-14T11:34:32;25.70;54.80
47961;DHT22;33721;48.852;9.936;2023-06-14T11:36:57;25.90;52.20
47961;DHT22;33721;48.852;9.936;2023-06-14T11:39:26;26.20;51.60
47961;DHT22;33721;48.852;9.936;2023-06-14T11:41:53;26.00;51.20
47961;DHT22;33721;48.852;9.936;2023-06-14T11:44:20;26.20;55.00
47961;DHT22;33721;48.852;9.936;2023-06-14T11:46:48;26.70;50.00
47961;DHT22;33721;48.852;9.936;2023-06-14T11:49:16;26.90;52.60
47961;DHT22;33721;48.852;9.936;2023-06-14T11:51:45;27.40;52.60
47961;DHT22;33721;48.852;9.936;2023-06-14T11:54:12;27.30;49.20
47961;DHT22;33721;48.852;9.936;2023-06-14T11:56:37;27.40;50.60
47961;DHT22;33721;48.852;9.936;2023-06-14T11:59:03;27.40;49.40
47961;DHT22;33721;48.852;9.936;2023-06-14T12:01:31;27.40;51.10
47961;DHT22;33721;48.852;9.936;2023-06-14T12:03:57;27.70;54.70
47961;DHT22;33721;48.852;9.936;2023-06-14T12:06:29;28.00;53.10
47961;DHT22;33721;48.852;9.936;2023-06-14T12:08:58;28.40;50.90
47961;DHT22;33721;48.852;9.936;2023-06-14T12:11:31;28.60;51.90
47961;DHT22;33721;48.852;9.936;2023-06-14T12:13:58;28.60;52.50
47961;DHT22;33721;48.852;9.936;2023-06-14T12:16:35;28.40;50.70
47961;DHT22;33721;48.852;9.936;2023-06-14T12:19:14;28.60;51.90
47961;DHT22;33721;48.852;9.936;2023-06-14T12:21:41;28.40;49.90
47961;DHT22;33721;48.852;9.936;2023-06-14T12:24:07;28.50;51.00
47961;DHT22;33721;48.852;9.936;2023-06-14T12:26:38;28.70;50.30
47961;DHT22;33721;48.852;9.936;2023-06-14T12:29:05;28.30;50.00
47961;DHT22;33721;48.852;9.936;2023-06-14T12:31:32;28.30;48.80
47961;DHT22;33721;48.852;9.936;2023-06-14T12:33:58;28.30;48.80
47961;DHT22;33721;48.852;9.936;2023-06-14T12:36:24;28.20;48.90
47961;DHT22;33721;48.852;9.936;2023-06-14T12:38:51;28.10;50.80
47961;DHT22;33721;48.852;9.936;2023-06-14T12:41:20;27.80;48.50
47961;DHT22;33721;48.852;9.936;2023-06-14T12:43:47;27.40;49.80
47961;DHT22;33721;48.852;9.936;2023-06-14T12:46:13;27.30;49.40
47961;DHT22;33721;48.852;9.936;2023-06-14T12:48:39;27.20;50.20
47961;DHT22;33721;48.852;9.936;2023-06-14T12:51:05;27.00;50.30
47961;DHT22;33721;48.852;9.936;2023-06-14T12:53:30;27.30;52.40
47961;DHT22;33721;48.852;9.936;2023-06-14T12:55:56;27.60;52.10
47961;DHT22;33721;48.852;9.936;2023-06-14T12:58:22;27.70;48.20
47961;DHT22;33721;48.852;9.936;2023-06-14T13:00:49;27.40;48.20
47961;DHT22;33721;48.852;9.936;2023-06-14T13:03:15;27.50;50.80
47961;DHT22;33721;48.852;9.936;2023-06-14T13:05:40;27.70;49.50
47961;DHT22;33721;48.852;9.936;2023-06-14T13:08:07;27.80;48.60
47961;DHT22;33721;48.852;9.936;2023-06-14T13:10:36;27.70;48.00
47961;DHT22;33721;48.852;9.936;2023-06-14T13:13:02;27.10;48.40
47961;DHT22;33721;48.852;9.936;2023-06-14T13:15:28;27.00;47.30
47961;DHT22;33721;48.852;9.936;2023-06-14T13:17:53;26.70;49.10
47961;DHT22;33721;48.852;9.936;2023-06-14T13:20:19;26.80;50.00
47961;DHT22;33721;48.852;9.936;2023-06-14T13:22:45;26.90;49.30
47961;DHT22;33721;48.852;9.936;2023-06-14T13:25:10;27.20;49.90
47961;DHT22;33721;48.852;9.936;2023-06-14T13:27:36;27.30;48.00
47961;DHT22;33721;48.852;9.936;2023-06-14T13:30:03;27.40;46.50
47961;DHT22;33721;48.852;9.936;2023-06-14T13:32:30;27.30;48.50
47961;DHT22;33721;48.852;9.936;2023-06-14T13:34:56;27.60;47.90
47961;DHT22;33721;48.852;9.936;2023-06-14T13:37:22;27.80;49.50
47961;DHT22;33721;48.852;9.936;2023-06-14T13:39:48;28.10;49.50
47961;DHT22;33721;48.852;9.936;2023-06-14T13:42:13;27.80;50.00
47961;DHT22;33721;48.852;9.936;2023-06-14T13:44:39;27.70;48.30
47961;DHT22;33721;48.852;9.936;2023-06-14T13:47:05;27.70;47.60
47961;DHT22;33721;48.852;9.936;2023-06-14T13:49:31;27.40;48.70
47961;DHT22;33721;48.852;9.936;2023-06-14T13:51:57;26.90;47.90
47961;DHT22;33721;48.852;9.936;2023-06-14T13:54:23;26.70;49.00
47961;DHT22;33721;48.852;9.936;2023-06-14T13:56:48;26.90;49.60
47961;DHT22;33721;48.852;9.936;2023-06-14T13:59:14;27.00;48.80
47961;DHT22;33721;48.852;9.936;2023-06-14T14:01:41;27.20;49.60
47961;DHT22;33721;48.852;9.936;2023-06-14T14:04:06;26.80;48.60
47961;DHT22;33721;48.852;9.936;2023-06-14T14:06:32;26.20;48.50
47961;DHT22;33721;48.852;9.936;2023-06-14T14:08:58;26.00;49.40
47961;DHT22;33721;48.852;9.936;2023-06-14T14:11:24;26.20;50.00
47961;DHT22;33721;48.852;9.936;2023-06-14T14:13:49;26.20;49.60
47961;DHT22;33721;48.852;9.936;2023-06-14T14:16:15;26.60;50.80
47961;DHT22;33721;48.852;9.936;2023-06-14T14:18:41;26.60;49.60
47961;DHT22;33721;48.852;9.936;2023-06-14T14:21:07;26.30;49.60
47961;DHT22;33721;48.852;9.936;2023-06-14T14:23:33;26.00;49.60
47961;DHT22;33721;48.852;9.936;2023-06-14T14:25:58;25.60;50.60
47961;DHT22;33721;48.852;9.936;2023-06-14T14:28:26;25.10;50.30
47961;DHT22;33721;48.852;9.936;2023-06-14T14:30:54;24.70;52.20
47961;DHT22;33721;48.852;9.936;2023-06-14T14:33:20;24.40;53.00
47961;DHT22;33721;48.852;9.936;2023-06-14T14:35:46;24.30;53.70
47961;DHT22;33721;48.852;9.936;2023-06-14T14:38:12;24.30;53.50
47961;DHT22;33721;48.852;9.936;2023-06-14T14:40:39;24.30;55.00
47961;DHT22;33721;48.852;9.936;2023-06-14T14:43:06;24.50;54.00
47961;DHT22;33721;48.852;9.936;2023-06-14T14:45:31;24.90;54.70
47961;DHT22;33721;48.852;9.936;2023-06-14T14:47:57;25.30;52.90
47961;DHT22;33721;48.852;9.936;2023-06-14T14:50:23;25.50;53.60
47961;DHT22;33721;48.852;9.936;2023-06-14T14:52:48;25.50;52.10
47961;DHT22;33721;48.852;9.936;2023-06-14T14:55:14;25.40;50.60
47961;DHT22;33721;48.852;9.936;2023-06-14T14:57:40;25.20;52.00
47961;DHT22;33721;48.852;9.936;2023-06-14T15:00:06;25.00;52.80
47961;DHT22;33721;48.852;9.936;2023-06-14T15:02:33;25.00;52.80
47961;DHT22;33721;48.852;9.936;2023-06-14T15:04:59;25.00;52.00
47961;DHT22;33721;48.852;9.936;2023-06-14T15:07:27;25.10;51.90
47961;DHT22;33721;48.852;9.936;2023-06-14T15:09:53;25.00;52.10
47961;DHT22;33721;48.852;9.936;2023-06-14T15:12:19;25.00;53.40
47961;DHT22;33721;48.852;9.936;2023-06-14T15:14:45;25.20;53.70
47961;DHT22;33721;48.852;9.936;2023-06-14T15:17:11;25.30;52.90
47961;DHT22;33721;48.852;9.936;2023-06-14T15:19:37;25.30;52.40
47961;DHT22;33721;48.852;9.936;2023-06-14T15:22:02;25.40;52.70
47961;DHT22;33721;48.852;9.936;2023-06-14T15:24:28;25.50;51.20
47961;DHT22;33721;48.852;9.936;2023-06-14T15:26:56;25.30;52.10
47961;DHT22;33721;48.852;9.936;2023-06-14T15:29:21;25.00;52.00
47961;DHT22;33721;48.852;9.936;2023-06-14T15:31:47;24.60;52.50
47961;DHT22;33721;48.852;9.936;2023-06-14T15:34:14;24.40;52.20
47961;DHT22;33721;48.852;9.936;2023-06-14T15:36:40;24.20;52.40
47961;DHT22;33721;48.852;9.936;2023-06-14T15:39:05;24.20;53.50
47961;DHT22;33721;48.852;9.936;2023-06-14T15:41:31;24.10;53.80